sensor_id;sensor_type;location;lat;lon;timestamp;P1;durP1;ratioP1;P2;durP2;ratioP2
53245;SDS011;39569;51.090;-1.786;2023-07-22T00:00:03;7.22;;;3.83;;
53245;SDS011;39569;51.090;-1.786;2023-07-22T00:02:34;4.90;;;3.30;;
53245;SDS011;39569;51.090;-1.786;2023-07-22T00:05:01;4.85;;;3.67;;
53245;SDS011;39569;51.090;-1.786;2023-07-22T00:07:28;3.40;;;3.15;;
53245;SDS011;39569;51.090;-1.786;2023-07-22T00:09:55;3.17;;;2.88;;
53245;SDS011;39569;51.090;-1.786;2023-07-22T00:12:21;4.40;;;3.28;;
53245;SDS011;39569;51.090;-1.786;2023-07-22T00:14:52;4.85;;;2.60;;
53245;SDS011;39569;51.090;-1.786;2023-07-22T00:17:19;5.47;;;4.97;;
53245;SDS011;39569;51.090;-1.786;2023-07-22T00:19:46;4.22;;;3.83;;
53245;SDS011;39569;51.090;-1.786;2023-07-22T00:22:13;5.45;;;4.45;;
53245;SDS011;39569;51.090;-1.786;2023-07-22T00:24:40;6.30;;;4.90;;
53245;SDS011;39569;51.090;-1.786;2023-07-22T00:27:07;10.45;;;5.07;;
53245;SDS011;39569;51.090;-1.786;2023-07-22T00:29:34;5.47;;;3.38;;
53245;SDS011;39569;51.090;-1.786;2023-07-22T00:32:02;7.63;;;4.20;;
53245;SDS011;39569;51.090;-1.786;2023-07-22T00:34:32;4.78;;;4.38;;
53245;SDS011;39569;51.090;-1.786;2023-07-22T00:36:59;6.85;;;4.38;;
53245;SDS011;39569;51.090;-1.786;2023-07-22T00:39:25;6.28;;;4.18;;
53245;SDS011;39569;51.090;-1.786;2023-07-22T00:41:52;5.60;;;4.72;;
53245;SDS011;39569;51.090;-1.786;2023-07-22T00:44:19;5.75;;;5.22;;
53245;SDS011;39569;51.090;-1.786;2023-07-22T00:46:45;5.40;;;3.25;;
53245;SDS011;39569;51.090;-1.786;2023-07-22T00:49:13;6.82;;;2.97;;
53245;SDS011;39569;51.090;-1.786;2023-07-22T00:51:42;4.50;;;2.97;;
53245;SDS011;39569;51.090;-1.786;2023-07-22T00:54:08;4.55;;;3.95;;
53245;SDS011;39569;51.090;-1.786;2023-07-22T00:56:36;5.15;;;3.45;;
53245;SDS011;39569;51.090;-1.786;2023-07-22T00:59:03;3.50;;;3.20;;
53245;SDS011;39569;51.090;-1.786;2023-07-22T01:01:31;4.20;;;3.03;;
53245;SDS011;39569;51.090;-1.786;2023-07-22T01:03:58;3.00;;;2.80;;
53245;SDS011;39569;51.090;-1.786;2023-07-22T01:06:27;10.60;;;3.70;;
53245;SDS011;39569;51.090;-1.786;2023-07-22T01:08:56;2.53;;;2.42;;
53245;SDS011;39569;51.090;-1.786;2023-07-22T01:11:23;3.65;;;2.75;;
53245;SDS011;39569;51.090;-1.786;2023-07-22T01:13:51;4.28;;;3.15;;
53245;SDS011;39569;51.090;-1.786;2023-07-22T01:16:23;4.68;;;3.13;;
53245;SDS011;39569;51.090;-1.786;2023-07-22T01:18:50;3.47;;;2.97;;
53245;SDS011;39569;51.090;-1.786;2023-07-22T01:21:19;3.83;;;2.65;;
53245;SDS011;39569;51.090;-1.786;2023-07-22T01:23:48;9.75;;;3.63;;
53245;SDS011;39569;51.090;-1.786;2023-07-22T01:26:16;3.10;;;2.42;;
53245;SDS011;39569;51.090;-1.786;2023-07-22T01:28:43;3.70;;;2.42;;
53245;SDS011;39569;51.090;-1.786;2023-07-22T01:31:10;3.80;;;2.75;;
53245;SDS011;39569;51.090;-1.786;2023-07-22T01:33:37;4.90;;;2.90;;
53245;SDS011;39569;51.090;-1.786;2023-07-22T01:36:04;5.40;;;3.05;;
53245;SDS011;39569;51.090;-1.786;2023-07-22T01:38:32;3.35;;;2.58;;
53245;SDS011;39569;51.090;-1.786;2023-07-22T01:41:00;3.00;;;2.63;;
53245;SDS011;39569;51.090;-1.786;2023-07-22T01:43:27;5.45;;;3.25;;
53245;SDS011;39569;51.090;-1.786;2023-07-22T01:45:54;4.70;;;3.22;;
53245;SDS011;39569;51.090;-1.786;2023-07-22T01:48:21;3.30;;;2.95;;
53245;SDS011;39569;51.090;-1.786;2023-07-22T01:50:48;6.00;;;2.85;;
53245;SDS011;39569;51.090;-1.786;2023-07-22T01:53:15;5.85;;;3.42;;
53245;SDS011;39569;51.090;-1.786;2023-07-22T01:55:42;3.00;;;2.72;;
53245;SDS011;39569;51.090;-1.786;2023-07-22T01:58:10;2.88;;;2.67;;
53245;SDS011;39569;51.090;-1.786;2023-07-22T02:00:37;2.85;;;2.10;;
53245;SDS011;39569;51.090;-1.786;2023-07-22T02:03:04;2.88;;;2.55;;
53245;SDS011;39569;51.090;-1.786;2023-07-22T02:05:30;6.45;;;3.00;;
53245;SDS011;39569;51.090;-1.786;2023-07-22T02:07:57;2.58;;;2.38;;
53245;SDS011;39569;51.090;-1.786;2023-07-22T02:10:24;3.70;;;3.20;;
53245;SDS011;39569;51.090;-1.786;2023-07-22T02:12:51;6.18;;;3.35;;
53245;SDS011;39569;51.090;-1.786;2023-07-22T02:15:20;5.70;;;2.28;;
53245;SDS011;39569;51.090;-1.786;2023-07-22T02:17:47;3.55;;;2.88;;
53245;SDS011;39569;51.090;-1.786;2023-07-22T02:20:14;3.25;;;2.95;;
53245;SDS011;39569;51.090;-1.786;2023-07-22T02:22:41;3.25;;;2.83;;
53245;SDS011;39569;51.090;-1.786;2023-07-22T02:25:08;5.20;;;2.33;;
53245;SDS011;39569;51.090;-1.786;2023-07-22T02:27:35;3.08;;;2.88;;
53245;SDS011;39569;51.090;-1.786;2023-07-22T02:30:02;2.97;;;2.70;;
53245;SDS011;39569;51.090;-1.786;2023-07-22T02:32:31;4.28;;;2.78;;
53245;SDS011;39569;51.090;-1.786;2023-07-22T02:34:58;3.03;;;2.65;;
53245;SDS011;39569;51.090;-1.786;2023-07-22T02:37:25;4.72;;;2.55;;
53245;SDS011;39569;51.090;-1.786;2023-07-22T02:39:53;4.22;;;2.83;;
53245;SDS011;39569;51.090;-1.786;2023-07-22T02:42:20;5.25;;;3.13;;
53245;SDS011;39569;51.090;-1.786;2023-07-22T02:44:47;4.55;;;3.28;;
53245;SDS011;39569;51.090;-1.786;2023-07-22T02:47:14;2.95;;;2.22;;
53245;SDS011;39569;51.090;-1.786;2023-07-22T02:49:42;4.97;;;2.88;;
53245;SDS011;39569;51.090;-1.786;2023-07-22T02:52:08;4.10;;;2.40;;
53245;SDS011;39569;51.090;-1.786;2023-07-22T02:54:38;2.75;;;2.22;;
53245;SDS011;39569;51.090;-1.786;2023-07-22T02:57:06;4.68;;;2.35;;
53245;SDS011;39569;51.090;-1.786;2023-07-22T02:59:33;4.32;;;3.25;;
53245;SDS011;39569;51.090;-1.786;2023-07-22T03:01:59;6.80;;;3.25;;
53245;SDS011;39569;51.090;-1.786;2023-07-22T03:04:26;3.70;;;2.90;;
53245;SDS011;39569;51.090;-1.786;2023-07-22T03:06:54;3.47;;;2.47;;
53245;SDS011;39569;51.090;-1.786;2023-07-22T03:09:21;6.68;;;3.22;;
53245;SDS011;39569;51.090;-1.786;2023-07-22T03:11:48;1.92;;;1.70;;
53245;SDS011;39569;51.090;-1.786;2023-07-22T03:14:14;5.07;;;2.67;;
53245;SDS011;39569;51.090;-1.786;2023-07-22T03:16:42;6.50;;;2.90;;
53245;SDS011;39569;51.090;-1.786;2023-07-22T03:19:09;2.65;;;2.45;;
53245;SDS011;39569;51.090;-1.786;2023-07-22T03:21:36;2.58;;;2.40;;
53245;SDS011;39569;51.090;-1.786;2023-07-22T03:24:04;3.20;;;2.53;;
53245;SDS011;39569;51.090;-1.786;2023-07-22T03:26:31;4.40;;;2.45;;
53245;SDS011;39569;51.090;-1.786;2023-07-22T03:28:58;3.17;;;2.63;;
53245;SDS011;39569;51.090;-1.786;2023-07-22T03:31:25;2.08;;;1.98;;
53245;SDS011;39569;51.090;-1.786;2023-07-22T03:33:51;2.72;;;2.53;;
53245;SDS011;39569;51.090;-1.786;2023-07-22T03:36:18;2.30;;;2.10;;
53245;SDS011;39569;51.090;-1.786;2023-07-22T03:38:45;4.10;;;2.72;;
53245;SDS011;39569;51.090;-1.786;2023-07-22T03:41:13;4.93;;;2.80;;
53245;SDS011;39569;51.090;-1.786;2023-07-22T03:43:40;5.05;;;2.17;;
53245;SDS011;39569;51.090;-1.786;2023-07-22T03:46:07;3.25;;;2.78;;
53245;SDS011;39569;51.090;-1.786;2023-07-22T03:48:33;4.47;;;2.53;;
53245;SDS011;39569;51.090;-1.786;2023-07-22T03:51:00;4.95;;;2.53;;
53245;SDS011;39569;51.090;-1.786;2023-07-22T03:53:27;2.95;;;2.70;;
53245;SDS011;39569;51.090;-1.786;2023-07-22T03:55:54;6.63;;;3.10;;
53245;SDS011;39569;51.090;-1.786;2023-07-22T03:58:22;5.78;;;2.95;;
53245;SDS011;39569;51.090;-1.786;2023-07-22T04:00:49;2.63;;;2.42;;
53245;SDS011;39569;51.090;-1.786;2023-07-22T04:03:15;9.63;;;3.22;;
53245;SDS011;39569;51.090;-1.786;2023-07-22T04:05:42;4.93;;;2.72;;
53245;SDS011;39569;51.090;-1.786;2023-07-22T04:08:09;4.15;;;2.88;;
53245;SDS011;39569;51.090;-1.786;2023-07-22T04:10:36;4.88;;;2.45;;
53245;SDS011;39569;51.090;-1.786;2023-07-22T04:13:02;2.30;;;2.20;;
53245;SDS011;39569;51.090;-1.786;2023-07-22T04:15:31;2.90;;;2.45;;
53245;SDS011;39569;51.090;-1.786;2023-07-22T04:17:57;6.05;;;3.08;;
53245;SDS011;39569;51.090;-1.786;2023-07-22T04:20:24;7.07;;;3.15;;
53245;SDS011;39569;51.090;-1.786;2023-07-22T04:22:51;3.35;;;3.05;;
53245;SDS011;39569;51.090;-1.786;2023-07-22T04:25:18;2.70;;;2.50;;
53245;SDS011;39569;51.090;-1.786;2023-07-22T04:27:45;3.42;;;3.13;;
53245;SDS011;39569;51.090;-1.786;2023-07-22T04:30:12;3.28;;;2.95;;
53245;SDS011;39569;51.090;-1.786;2023-07-22T04:32:46;2.58;;;2.38;;
53245;SDS011;39569;51.090;-1.786;2023-07-22T04:35:13;4.63;;;3.65;;
53245;SDS011;39569;51.090;-1.786;2023-07-22T04:37:42;4.47;;;2.63;;
53245;SDS011;39569;51.090;-1.786;2023-07-22T04:40:09;4.45;;;2.97;;
53245;SDS011;39569;51.090;-1.786;2023-07-22T04:42:41;5.68;;;3.60;;
53245;SDS011;39569;51.090;-1.786;2023-07-22T04:45:08;4.40;;;3.10;;
53245;SDS011;39569;51.090;-1.786;2023-07-22T04:47:36;2.80;;;2.60;;
53245;SDS011;39569;51.090;-1.786;2023-07-22T04:50:05;2.80;;;2.50;;
53245;SDS011;39569;51.090;-1.786;2023-07-22T04:52:35;3.08;;;2.88;;
53245;SDS011;39569;51.090;-1.786;2023-07-22T04:55:01;4.28;;;2.72;;
53245;SDS011;39569;51.090;-1.786;2023-07-22T04:57:33;4.00;;;3.00;;
53245;SDS011;39569;51.090;-1.786;2023-07-22T05:00:00;5.20;;;2.63;;
53245;SDS011;39569;51.090;-1.786;2023-07-22T05:02:28;2.92;;;2.53;;
53245;SDS011;39569;51.090;-1.786;2023-07-22T05:04:56;3.90;;;2.90;;
53245;SDS011;39569;51.090;-1.786;2023-07-22T05:07:24;5.60;;;2.58;;
53245;SDS011;39569;51.090;-1.786;2023-07-22T05:09:51;8.25;;;3.60;;
53245;SDS011;39569;51.090;-1.786;2023-07-22T05:12:18;5.53;;;3.83;;
53245;SDS011;39569;51.090;-1.786;2023-07-22T05:14:45;5.35;;;3.47;;
53245;SDS011;39569;51.090;-1.786;2023-07-22T05:17:12;2.80;;;2.60;;
53245;SDS011;39569;51.090;-1.786;2023-07-22T05:19:38;3.95;;;3.40;;
53245;SDS011;39569;51.090;-1.786;2023-07-22T05:22:05;3.00;;;2.45;;
53245;SDS011;39569;51.090;-1.786;2023-07-22T05:24:33;4.47;;;3.55;;
53245;SDS011;39569;51.090;-1.786;2023-07-22T05:27:00;8.20;;;3.38;;
53245;SDS011;39569;51.090;-1.786;2023-07-22T05:29:27;3.75;;;3.05;;
53245;SDS011;39569;51.090;-1.786;2023-07-22T05:31:54;8.27;;;4.10;;
53245;SDS011;39569;51.090;-1.786;2023-07-22T05:34:20;4.75;;;3.38;;
53245;SDS011;39569;51.090;-1.786;2023-07-22T05:36:47;4.18;;;3.78;;
53245;SDS011;39569;51.090;-1.786;2023-07-22T05:39:14;3.38;;;2.63;;
53245;SDS011;39569;51.090;-1.786;2023-07-22T05:41:44;5.50;;;3.67;;
53245;SDS011;39569;51.090;-1.786;2023-07-22T05:44:11;4.35;;;3.22;;
53245;SDS011;39569;51.090;-1.786;2023-07-22T05:46:37;6.72;;;3.75;;
53245;SDS011;39569;51.090;-1.786;2023-07-22T05:49:04;6.32;;;3.60;;
53245;SDS011;39569;51.090;-1.786;2023-07-22T05:51:31;7.60;;;3.05;;
53245;SDS011;39569;51.090;-1.786;2023-07-22T05:53:57;7.70;;;3.80;;
53245;SDS011;39569;51.090;-1.786;2023-07-22T05:56:24;5.05;;;2.88;;
53245;SDS011;39569;51.090;-1.786;2023-07-22T05:58:52;3.47;;;3.13;;
53245;SDS011;39569;51.090;-1.786;2023-07-22T06:01:19;11.15;;;3.97;;
53245;SDS011;39569;51.090;-1.786;2023-07-22T06:03:47;6.35;;;2.97;;
53245;SDS011;39569;51.090;-1.786;2023-07-22T06:06:13;3.75;;;3.45;;
53245;SDS011;39569;51.090;-1.786;2023-07-22T06:08:40;5.05;;;3.90;;
53245;SDS011;39569;51.090;-1.786;2023-07-22T06:11:07;6.28;;;4.60;;
53245;SDS011;39569;51.090;-1.786;2023-07-22T06:13:34;3.90;;;3.25;;
53245;SDS011;39569;51.090;-1.786;2023-07-22T06:16:02;5.38;;;3.53;;
53245;SDS011;39569;51.090;-1.786;2023-07-22T06:18:29;6.03;;;3.47;;
53245;SDS011;39569;51.090;-1.786;2023-07-22T06:20:56;5.80;;;2.95;;
53245;SDS011;39569;51.090;-1.786;2023-07-22T06:23:22;8.20;;;4.10;;
53245;SDS011;39569;51.090;-1.786;2023-07-22T06:25:49;4.97;;;3.05;;
53245;SDS011;39569;51.090;-1.786;2023-07-22T06:28:17;4.15;;;3.83;;
53245;SDS011;39569;51.090;-1.786;2023-07-22T06:30:43;3.63;;;3.10;;
53245;SDS011;39569;51.090;-1.786;2023-07-22T06:33:12;4.28;;;3.10;;
53245;SDS011;39569;51.090;-1.786;2023-07-22T06:35:38;7.03;;;4.80;;
53245;SDS011;39569;51.090;-1.786;2023-07-22T06:38:05;11.63;;;4.85;;
53245;SDS011;39569;51.090;-1.786;2023-07-22T06:40:32;7.55;;;4.22;;
53245;SDS011;39569;51.090;-1.786;2023-07-22T06:42:58;6.63;;;4.53;;
53245;SDS011;39569;51.090;-1.786;2023-07-22T06:45:25;5.95;;;3.63;;
53245;SDS011;39569;51.090;-1.786;2023-07-22T06:47:52;7.88;;;5.05;;
53245;SDS011;39569;51.090;-1.786;2023-07-22T06:50:20;5.05;;;3.80;;
53245;SDS011;39569;51.090;-1.786;2023-07-22T06:52:47;5.93;;;4.93;;
53245;SDS011;39569;51.090;-1.786;2023-07-22T06:55:14;5.05;;;4.25;;
53245;SDS011;39569;51.090;-1.786;2023-07-22T06:57:41;6.50;;;5.93;;
53245;SDS011;39569;51.090;-1.786;2023-07-22T07:00:09;4.55;;;3.85;;
53245;SDS011;39569;51.090;-1.786;2023-07-22T07:02:36;4.50;;;4.10;;
53245;SDS011;39569;51.090;-1.786;2023-07-22T07:05:03;4.50;;;4.13;;
53245;SDS011;39569;51.090;-1.786;2023-07-22T07:07:31;6.40;;;4.22;;
53245;SDS011;39569;51.090;-1.786;2023-07-22T07:09:58;8.32;;;5.57;;
53245;SDS011;39569;51.090;-1.786;2023-07-22T07:12:25;5.72;;;4.13;;
53245;SDS011;39569;51.090;-1.786;2023-07-22T07:14:52;5.57;;;4.45;;
53245;SDS011;39569;51.090;-1.786;2023-07-22T07:17:19;10.13;;;5.70;;
53245;SDS011;39569;51.090;-1.786;2023-07-22T07:19:46;4.90;;;4.30;;
53245;SDS011;39569;51.090;-1.786;2023-07-22T07:22:12;8.60;;;4.43;;
53245;SDS011;39569;51.090;-1.786;2023-07-22T07:24:41;5.85;;;4.38;;
53245;SDS011;39569;51.090;-1.786;2023-07-22T07:27:07;8.75;;;6.35;;
53245;SDS011;39569;51.090;-1.786;2023-07-22T07:29:34;7.47;;;5.35;;
53245;SDS011;39569;51.090;-1.786;2023-07-22T07:32:01;7.95;;;5.38;;
53245;SDS011;39569;51.090;-1.786;2023-07-22T07:34:28;8.65;;;6.03;;
53245;SDS011;39569;51.090;-1.786;2023-07-22T07:36:55;10.43;;;6.80;;
53245;SDS011;39569;51.090;-1.786;2023-07-22T07:39:22;8.10;;;7.35;;
53245;SDS011;39569;51.090;-1.786;2023-07-22T07:41:50;9.25;;;6.20;;
53245;SDS011;39569;51.090;-1.786;2023-07-22T07:44:17;8.93;;;6.35;;
53245;SDS011;39569;51.090;-1.786;2023-07-22T07:46:43;6.85;;;5.68;;
53245;SDS011;39569;51.090;-1.786;2023-07-22T07:49:10;8.10;;;6.80;;
53245;SDS011;39569;51.090;-1.786;2023-07-22T07:51:37;16.70;;;7.45;;
53245;SDS011;39569;51.090;-1.786;2023-07-22T07:54:04;8.07;;;6.22;;
53245;SDS011;39569;51.090;-1.786;2023-07-22T07:56:32;6.82;;;6.20;;
53245;SDS011;39569;51.090;-1.786;2023-07-22T07:59:00;8.90;;;7.50;;
53245;SDS011;39569;51.090;-1.786;2023-07-22T08:01:27;8.07;;;6.57;;
53245;SDS011;39569;51.090;-1.786;2023-07-22T08:03:54;8.38;;;6.35;;
53245;SDS011;39569;51.090;-1.786;2023-07-22T08:06:21;9.38;;;7.25;;
53245;SDS011;39569;51.090;-1.786;2023-07-22T08:08:48;9.73;;;7.03;;
53245;SDS011;39569;51.090;-1.786;2023-07-22T08:11:14;9.45;;;6.30;;
53245;SDS011;39569;51.090;-1.786;2023-07-22T08:13:42;9.13;;;6.57;;
53245;SDS011;39569;51.090;-1.786;2023-07-22T08:16:11;11.45;;;8.18;;
53245;SDS011;39569;51.090;-1.786;2023-07-22T08:18:39;9.10;;;6.78;;
53245;SDS011;39569;51.090;-1.786;2023-07-22T08:21:06;8.48;;;6.50;;
53245;SDS011;39569;51.090;-1.786;2023-07-22T08:23:34;9.93;;;7.53;;
53245;SDS011;39569;51.090;-1.786;2023-07-22T08:26:01;7.22;;;6.57;;
53245;SDS011;39569;51.090;-1.786;2023-07-22T08:28:30;6.72;;;6.22;;
53245;SDS011;39569;51.090;-1.786;2023-07-22T08:30:57;9.07;;;6.88;;
53245;SDS011;39569;51.090;-1.786;2023-07-22T08:33:27;9.52;;;5.93;;
53245;SDS011;39569;51.090;-1.786;2023-07-22T08:35:53;7.95;;;6.00;;
53245;SDS011;39569;51.090;-1.786;2023-07-22T08:38:20;9.00;;;7.20;;
53245;SDS011;39569;51.090;-1.786;2023-07-22T08:40:48;10.80;;;6.47;;
53245;SDS011;39569;51.090;-1.786;2023-07-22T08:43:16;15.70;;;7.63;;
53245;SDS011;39569;51.090;-1.786;2023-07-22T08:45:46;12.80;;;8.77;;
53245;SDS011;39569;51.090;-1.786;2023-07-22T08:48:15;7.07;;;5.68;;
53245;SDS011;39569;51.090;-1.786;2023-07-22T08:50:46;13.75;;;7.32;;
53245;SDS011;39569;51.090;-1.786;2023-07-22T08:53:15;18.77;;;7.32;;
53245;SDS011;39569;51.090;-1.786;2023-07-22T08:55:44;8.85;;;7.63;;
53245;SDS011;39569;51.090;-1.786;2023-07-22T08:58:13;11.07;;;6.82;;
53245;SDS011;39569;51.090;-1.786;2023-07-22T09:00:40;9.73;;;6.40;;
53245;SDS011;39569;51.090;-1.786;2023-07-22T09:03:07;10.85;;;7.43;;
53245;SDS011;39569;51.090;-1.786;2023-07-22T09:05:35;7.00;;;6.35;;
53245;SDS011;39569;51.090;-1.786;2023-07-22T09:08:06;11.93;;;7.97;;
53245;SDS011;39569;51.090;-1.786;2023-07-22T09:10:33;8.23;;;7.28;;
53245;SDS011;39569;51.090;-1.786;2023-07-22T09:13:00;11.77;;;7.75;;
53245;SDS011;39569;51.090;-1.786;2023-07-22T09:15:28;12.32;;;8.70;;
53245;SDS011;39569;51.090;-1.786;2023-07-22T09:17:58;7.30;;;6.63;;
53245;SDS011;39569;51.090;-1.786;2023-07-22T09:20:25;11.43;;;8.18;;
53245;SDS011;39569;51.090;-1.786;2023-07-22T09:22:53;12.68;;;9.73;;
53245;SDS011;39569;51.090;-1.786;2023-07-22T09:25:22;9.10;;;7.72;;
53245;SDS011;39569;51.090;-1.786;2023-07-22T09:27:50;11.43;;;8.70;;
53245;SDS011;39569;51.090;-1.786;2023-07-22T09:30:20;9.05;;;7.68;;
53245;SDS011;39569;51.090;-1.786;2023-07-22T09:32:48;9.68;;;8.02;;
53245;SDS011;39569;51.090;-1.786;2023-07-22T09:35:15;10.02;;;8.98;;
53245;SDS011;39569;51.090;-1.786;2023-07-22T09:37:43;8.30;;;7.30;;
53245;SDS011;39569;51.090;-1.786;2023-07-22T09:40:16;8.82;;;7.97;;
53245;SDS011;39569;51.090;-1.786;2023-07-22T09:45:14;12.75;;;9.75;;
53245;SDS011;39569;51.090;-1.786;2023-07-22T09:47:41;14.75;;;9.18;;
53245;SDS011;39569;51.090;-1.786;2023-07-22T09:50:12;11.60;;;10.25;;
53245;SDS011;39569;51.090;-1.786;2023-07-22T09:52:44;11.70;;;9.88;;
53245;SDS011;39569;51.090;-1.786;2023-07-22T09:55:14;15.40;;;10.15;;
53245;SDS011;39569;51.090;-1.786;2023-07-22T09:57:43;12.27;;;10.20;;
53245;SDS011;39569;51.090;-1.786;2023-07-22T10:00:13;11.95;;;9.88;;
53245;SDS011;39569;51.090;-1.786;2023-07-22T10:02:41;16.15;;;11.27;;
53245;SDS011;39569;51.090;-1.786;2023-07-22T10:05:13;12.80;;;10.50;;
53245;SDS011;39569;51.090;-1.786;2023-07-22T10:07:45;14.45;;;11.15;;
53245;SDS011;39569;51.090;-1.786;2023-07-22T10:10:15;17.65;;;12.00;;
53245;SDS011;39569;51.090;-1.786;2023-07-22T10:12:43;15.45;;;11.40;;
53245;SDS011;39569;51.090;-1.786;2023-07-22T10:15:10;12.18;;;10.98;;
53245;SDS011;39569;51.090;-1.786;2023-07-22T10:17:40;15.48;;;11.07;;
53245;SDS011;39569;51.090;-1.786;2023-07-22T10:20:07;11.23;;;9.77;;
53245;SDS011;39569;51.090;-1.786;2023-07-22T10:22:40;13.00;;;11.52;;
53245;SDS011;39569;51.090;-1.786;2023-07-22T10:25:08;16.58;;;10.65;;
53245;SDS011;39569;51.090;-1.786;2023-07-22T10:27:37;19.52;;;11.27;;
53245;SDS011;39569;51.090;-1.786;2023-07-22T10:30:07;16.20;;;11.32;;
53245;SDS011;39569;51.090;-1.786;2023-07-22T10:32:39;14.95;;;11.00;;
53245;SDS011;39569;51.090;-1.786;2023-07-22T10:35:10;14.43;;;10.90;;
53245;SDS011;39569;51.090;-1.786;2023-07-22T10:37:38;13.88;;;11.07;;
53245;SDS011;39569;51.090;-1.786;2023-07-22T10:40:17;17.52;;;12.23;;
53245;SDS011;39569;51.090;-1.786;2023-07-22T10:42:52;14.55;;;11.00;;
53245;SDS011;39569;51.090;-1.786;2023-07-22T10:45:23;17.20;;;13.02;;
53245;SDS011;39569;51.090;-1.786;2023-07-22T10:48:00;20.67;;;14.15;;
53245;SDS011;39569;51.090;-1.786;2023-07-22T10:50:39;18.58;;;14.45;;
53245;SDS011;39569;51.090;-1.786;2023-07-22T10:53:08;20.25;;;16.15;;
53245;SDS011;39569;51.090;-1.786;2023-07-22T10:58:30;20.77;;;16.17;;
53245;SDS011;39569;51.090;-1.786;2023-07-22T11:04:08;16.02;;;14.13;;
53245;SDS011;39569;51.090;-1.786;2023-07-22T11:06:51;23.67;;;15.05;;
53245;SDS011;39569;51.090;-1.786;2023-07-22T11:09:36;26.80;;;15.45;;
53245;SDS011;39569;51.090;-1.786;2023-07-22T11:12:05;20.60;;;14.88;;
53245;SDS011;39569;51.090;-1.786;2023-07-22T11:14:34;14.02;;;12.57;;
53245;SDS011;39569;51.090;-1.786;2023-07-22T11:17:04;16.25;;;14.65;;
53245;SDS011;39569;51.090;-1.786;2023-07-22T11:19:34;20.27;;;14.15;;
53245;SDS011;39569;51.090;-1.786;2023-07-22T11:22:01;21.95;;;13.63;;
53245;SDS011;39569;51.090;-1.786;2023-07-22T11:24:29;15.20;;;13.60;;
53245;SDS011;39569;51.090;-1.786;2023-07-22T11:26:56;13.98;;;12.57;;
53245;SDS011;39569;51.090;-1.786;2023-07-22T11:29:22;15.70;;;13.15;;
53245;SDS011;39569;51.090;-1.786;2023-07-22T11:31:50;14.35;;;12.85;;
53245;SDS011;39569;51.090;-1.786;2023-07-22T11:34:17;18.35;;;15.27;;
53245;SDS011;39569;51.090;-1.786;2023-07-22T11:36:47;21.08;;;16.65;;
53245;SDS011;39569;51.090;-1.786;2023-07-22T11:39:16;19.30;;;16.33;;
53245;SDS011;39569;51.090;-1.786;2023-07-22T11:41:43;25.75;;;15.55;;
53245;SDS011;39569;51.090;-1.786;2023-07-22T11:44:11;20.75;;;16.98;;
53245;SDS011;39569;51.090;-1.786;2023-07-22T11:46:47;19.55;;;17.65;;
53245;SDS011;39569;51.090;-1.786;2023-07-22T11:49:21;21.13;;;18.80;;
53245;SDS011;39569;51.090;-1.786;2023-07-22T11:51:50;23.58;;;18.08;;
53245;SDS011;39569;51.090;-1.786;2023-07-22T11:54:20;23.73;;;18.23;;
53245;SDS011;39569;51.090;-1.786;2023-07-22T11:56:47;21.98;;;16.95;;
53245;SDS011;39569;51.090;-1.786;2023-07-22T11:59:14;20.02;;;17.88;;
53245;SDS011;39569;51.090;-1.786;2023-07-22T12:01:42;25.63;;;17.65;;
53245;SDS011;39569;51.090;-1.786;2023-07-22T12:04:11;23.05;;;18.13;;
53245;SDS011;39569;51.090;-1.786;2023-07-22T12:06:39;28.95;;;19.27;;
53245;SDS011;39569;51.090;-1.786;2023-07-22T12:09:08;28.23;;;17.77;;
53245;SDS011;39569;51.090;-1.786;2023-07-22T12:11:36;20.27;;;18.20;;
53245;SDS011;39569;51.090;-1.786;2023-07-22T12:14:07;19.58;;;16.35;;
53245;SDS011;39569;51.090;-1.786;2023-07-22T12:16:35;19.50;;;16.63;;
53245;SDS011;39569;51.090;-1.786;2023-07-22T12:19:02;21.60;;;16.20;;
53245;SDS011;39569;51.090;-1.786;2023-07-22T12:21:29;19.67;;;16.33;;
53245;SDS011;39569;51.090;-1.786;2023-07-22T12:23:56;21.33;;;18.67;;
53245;SDS011;39569;51.090;-1.786;2023-07-22T12:26:25;18.05;;;16.20;;
53245;SDS011;39569;51.090;-1.786;2023-07-22T12:28:52;19.20;;;17.17;;
53245;SDS011;39569;51.090;-1.786;2023-07-22T12:31:18;19.77;;;17.48;;
53245;SDS011;39569;51.090;-1.786;2023-07-22T12:33:45;27.00;;;16.75;;
53245;SDS011;39569;51.090;-1.786;2023-07-22T12:36:12;16.88;;;14.98;;
53245;SDS011;39569;51.090;-1.786;2023-07-22T12:38:39;21.88;;;16.02;;
53245;SDS011;39569;51.090;-1.786;2023-07-22T12:41:05;20.98;;;16.65;;
53245;SDS011;39569;51.090;-1.786;2023-07-22T12:43:33;21.38;;;18.50;;
53245;SDS011;39569;51.090;-1.786;2023-07-22T12:46:00;21.50;;;17.00;;
53245;SDS011;39569;51.090;-1.786;2023-07-22T12:48:27;17.23;;;15.43;;
53245;SDS011;39569;51.090;-1.786;2023-07-22T12:50:54;22.13;;;16.60;;
53245;SDS011;39569;51.090;-1.786;2023-07-22T12:53:21;23.08;;;17.00;;
53245;SDS011;39569;51.090;-1.786;2023-07-22T12:55:47;18.67;;;15.52;;
53245;SDS011;39569;51.090;-1.786;2023-07-22T12:58:14;21.58;;;15.73;;
53245;SDS011;39569;51.090;-1.786;2023-07-22T13:00:42;20.25;;;16.20;;
53245;SDS011;39569;51.090;-1.786;2023-07-22T13:03:09;21.95;;;16.77;;
53245;SDS011;39569;51.090;-1.786;2023-07-22T13:05:36;25.92;;;17.15;;
53245;SDS011;39569;51.090;-1.786;2023-07-22T13:08:03;19.85;;;15.25;;
53245;SDS011;39569;51.090;-1.786;2023-07-22T13:10:30;17.58;;;15.02;;
53245;SDS011;39569;51.090;-1.786;2023-07-22T13:12:59;15.55;;;13.88;;
53245;SDS011;39569;51.090;-1.786;2023-07-22T13:15:26;29.98;;;14.77;;
53245;SDS011;39569;51.090;-1.786;2023-07-22T13:17:54;18.73;;;14.52;;
53245;SDS011;39569;51.090;-1.786;2023-07-22T13:20:21;27.85;;;13.73;;
53245;SDS011;39569;51.090;-1.786;2023-07-22T13:22:47;14.98;;;12.07;;
53245;SDS011;39569;51.090;-1.786;2023-07-22T13:25:14;15.63;;;12.77;;
53245;SDS011;39569;51.090;-1.786;2023-07-22T13:27:41;22.00;;;12.70;;
53245;SDS011;39569;51.090;-1.786;2023-07-22T13:30:08;13.77;;;12.45;;
53245;SDS011;39569;51.090;-1.786;2023-07-22T13:32:35;14.45;;;12.88;;
53245;SDS011;39569;51.090;-1.786;2023-07-22T13:35:04;14.27;;;12.48;;
53245;SDS011;39569;51.090;-1.786;2023-07-22T13:37:31;14.45;;;12.77;;
53245;SDS011;39569;51.090;-1.786;2023-07-22T13:39:58;16.30;;;12.65;;
53245;SDS011;39569;51.090;-1.786;2023-07-22T13:42:25;12.30;;;11.05;;
53245;SDS011;39569;51.090;-1.786;2023-07-22T13:44:52;11.38;;;10.20;;
53245;SDS011;39569;51.090;-1.786;2023-07-22T13:47:18;11.80;;;9.80;;
53245;SDS011;39569;51.090;-1.786;2023-07-22T13:49:45;12.80;;;10.02;;
53245;SDS011;39569;51.090;-1.786;2023-07-22T13:52:13;12.90;;;10.75;;
53245;SDS011;39569;51.090;-1.786;2023-07-22T13:54:40;14.85;;;10.85;;
53245;SDS011;39569;51.090;-1.786;2023-07-22T13:57:07;11.45;;;10.27;;
53245;SDS011;39569;51.090;-1.786;2023-07-22T13:59:34;21.67;;;11.25;;
53245;SDS011;39569;51.090;-1.786;2023-07-22T14:02:00;11.15;;;9.93;;
53245;SDS011;39569;51.090;-1.786;2023-07-22T14:04:28;12.50;;;11.20;;
53245;SDS011;39569;51.090;-1.786;2023-07-22T14:06:54;14.90;;;11.77;;
53245;SDS011;39569;51.090;-1.786;2023-07-22T14:09:23;14.80;;;12.38;;
53245;SDS011;39569;51.090;-1.786;2023-07-22T14:11:50;12.93;;;11.00;;
53245;SDS011;39569;51.090;-1.786;2023-07-22T14:14:17;17.33;;;12.20;;
53245;SDS011;39569;51.090;-1.786;2023-07-22T14:16:44;20.38;;;12.65;;
53245;SDS011;39569;51.090;-1.786;2023-07-22T14:19:11;14.88;;;12.30;;
53245;SDS011;39569;51.090;-1.786;2023-07-22T14:21:38;18.65;;;13.07;;
53245;SDS011;39569;51.090;-1.786;2023-07-22T14:24:05;13.77;;;12.38;;
53245;SDS011;39569;51.090;-1.786;2023-07-22T14:26:33;14.77;;;12.52;;
53245;SDS011;39569;51.090;-1.786;2023-07-22T14:28:59;16.85;;;12.55;;
53245;SDS011;39569;51.090;-1.786;2023-07-22T14:31:26;14.88;;;12.68;;
53245;SDS011;39569;51.090;-1.786;2023-07-22T14:33:53;16.83;;;13.00;;
53245;SDS011;39569;51.090;-1.786;2023-07-22T14:36:20;23.15;;;13.88;;